createdAt,value
2024-01-27T00:00:18.208Z,2.75
2024-01-27T00:01:18.218Z,2.81
2024-01-27T00:02:18.122Z,2.03
2024-01-27T00:03:18.247Z,2.03
2024-01-27T00:04:18.213Z,2.48
2024-01-27T00:05:18.294Z,1.71
2024-01-27T00:06:18.305Z,1.92
2024-01-27T00:07:18.341Z,1.92
2024-01-27T00:08:18.196Z,2.08
2024-01-27T00:09:18.279Z,1.79
2024-01-27T00:10:18.242Z,1.72
2024-01-27T00:11:18.275Z,2.30
2024-01-27T00:12:18.341Z,2.09
2024-01-27T00:13:18.261Z,1.48
2024-01-27T00:14:18.278Z,1.13
2024-01-27T00:15:18.258Z,1.72
2024-01-27T00:16:18.240Z,1.67
2024-01-27T00:17:18.208Z,1.99
2024-01-27T00:18:18.307Z,1.67
2024-01-27T00:19:18.409Z,1.66
2024-01-27T00:20:18.383Z,1.68
2024-01-27T00:21:18.257Z,1.34
2024-01-27T00:22:18.304Z,1.41
2024-01-27T00:23:18.257Z,1.57
2024-01-27T00:24:18.299Z,1.82
2024-01-27T00:25:18.290Z,1.72
2024-01-27T00:26:18.329Z,1.87
2024-01-27T00:27:18.397Z,2.41
2024-01-27T00:28:18.402Z,2.10
2024-01-27T00:29:18.453Z,1.89
2024-01-27T00:30:18.596Z,2.44
2024-01-27T00:31:18.525Z,2.22
2024-01-27T00:32:18.592Z,2.59
2024-01-27T00:33:18.650Z,1.73
2024-01-27T00:34:18.614Z,1.81
2024-01-27T00:35:18.590Z,2.00
2024-01-27T00:36:18.659Z,2.76
2024-01-27T00:37:18.687Z,2.48
2024-01-27T00:38:18.692Z,2.59
2024-01-27T00:39:18.745Z,2.44
2024-01-27T00:40:18.763Z,2.25
2024-01-27T00:41:18.788Z,2.16
2024-01-27T00:42:18.828Z,2.24
2024-01-27T00:43:18.781Z,3.29
2024-01-27T00:44:18.760Z,2.77
2024-01-27T00:45:18.771Z,3.44
2024-01-27T00:46:18.831Z,6.44
2024-01-27T00:47:18.833Z,6.29
2024-01-27T00:48:19.050Z,6.61
2024-01-27T00:49:18.983Z,6.43
2024-01-27T00:50:18.886Z,6.87
2024-01-27T00:51:18.908Z,6.47
2024-01-27T00:52:18.894Z,6.78
2024-01-27T00:53:18.896Z,6.33
2024-01-27T00:54:19.016Z,6.10
2024-01-27T00:55:18.938Z,6.48
2024-01-27T00:56:18.949Z,6.06
2024-01-27T00:57:19.010Z,5.77
2024-01-27T00:58:18.969Z,5.14
2024-01-27T00:59:19.034Z,4.62
2024-01-27T01:00:19.066Z,4.33
2024-01-27T01:01:19.061Z,3.46
2024-01-27T01:02:19.020Z,3.62
2024-01-27T01:03:19.342Z,3.78
2024-01-27T01:04:19.171Z,3.12
2024-01-27T01:05:19.196Z,2.81
2024-01-27T01:06:19.460Z,3.17
2024-01-27T01:07:19.246Z,2.89
2024-01-27T01:08:19.239Z,3.13
2024-01-27T01:09:19.303Z,2.66
2024-01-27T01:10:19.287Z,2.89
2024-01-27T01:11:19.285Z,2.73
2024-01-27T01:12:19.398Z,2.50
2024-01-27T01:13:19.285Z,2.52
2024-01-27T01:14:19.332Z,2.34
2024-01-27T01:15:19.323Z,2.31
2024-01-27T01:16:19.257Z,2.74
2024-01-27T01:17:19.265Z,2.29
2024-01-27T01:18:19.356Z,2.08
2024-01-27T01:19:19.311Z,2.78
2024-01-27T01:20:19.286Z,2.41
2024-01-27T01:21:19.337Z,2.47
2024-01-27T01:22:19.300Z,2.51
2024-01-27T01:23:19.298Z,3.12
2024-01-27T01:24:19.354Z,3.08
2024-01-27T01:25:19.322Z,2.60
2024-01-27T01:26:19.381Z,2.41
2024-01-27T01:27:19.444Z,2.40
2024-01-27T01:28:19.511Z,2.28
2024-01-27T01:29:19.496Z,2.54
2024-01-27T01:30:19.623Z,2.21
2024-01-27T01:31:19.566Z,2.48
2024-01-27T01:32:19.582Z,2.23
2024-01-27T01:33:19.884Z,2.41
2024-01-27T01:34:19.837Z,2.51
2024-01-27T01:35:19.731Z,2.78
2024-01-27T01:36:19.838Z,2.38
2024-01-27T01:37:19.814Z,2.21
2024-01-27T01:38:19.888Z,2.00
2024-01-27T01:39:19.990Z,2.17
2024-01-27T01:40:19.939Z,2.68
2024-01-27T01:41:19.946Z,2.10
2024-01-27T01:42:19.978Z,2.15
2024-01-27T01:43:19.966Z,2.16
2024-01-27T01:44:19.966Z,2.19
2024-01-27T01:45:20.078Z,2.11
2024-01-27T01:46:20.038Z,2.33
2024-01-27T01:47:20.092Z,2.05
2024-01-27T01:48:20.292Z,2.28
2024-01-27T01:49:20.244Z,2.47
2024-01-27T01:50:20.204Z,2.25
2024-01-27T01:51:20.212Z,2.10
2024-01-27T01:52:20.134Z,2.52
2024-01-27T01:53:20.147Z,2.56
2024-01-27T01:54:20.202Z,2.40
2024-01-27T01:55:20.221Z,2.52
2024-01-27T01:56:20.267Z,2.34
2024-01-27T01:57:20.425Z,2.36
2024-01-27T01:58:20.363Z,2.19
2024-01-27T01:59:20.397Z,2.11
2024-01-27T02:00:20.686Z,2.73
2024-01-27T02:01:20.641Z,2.33
2024-01-27T02:02:20.486Z,2.49
2024-01-27T02:03:20.561Z,2.37
2024-01-27T02:04:20.618Z,2.29
2024-01-27T02:05:20.644Z,2.12
2024-01-27T02:06:20.715Z,2.72
2024-01-27T02:07:20.668Z,2.30
2024-01-27T02:08:20.673Z,2.36
2024-01-27T02:09:20.787Z,2.47
2024-01-27T02:10:20.697Z,2.37
2024-01-27T02:11:20.752Z,2.50
2024-01-27T02:12:20.825Z,1.98
2024-01-27T02:13:20.806Z,1.95
2024-01-27T02:14:20.845Z,2.30
2024-01-27T02:15:20.878Z,2.27
2024-01-27T02:16:20.879Z,2.48
2024-01-27T02:17:20.927Z,2.12
2024-01-27T02:18:21.004Z,2.39
2024-01-27T02:19:21.023Z,2.24
2024-01-27T02:20:20.985Z,1.89
2024-01-27T02:21:21.066Z,2.45
2024-01-27T02:22:21.009Z,2.38
2024-01-27T02:23:21.036Z,1.87
2024-01-27T02:24:21.109Z,2.47
2024-01-27T02:25:21.136Z,2.55
2024-01-27T02:26:21.200Z,2.51
2024-01-27T02:27:21.309Z,2.37
2024-01-27T02:28:21.244Z,2.51
2024-01-27T02:29:21.255Z,2.65
2024-01-27T02:30:21.331Z,2.36
2024-01-27T02:31:21.347Z,2.79
2024-01-27T02:32:21.379Z,2.37
2024-01-27T02:33:21.458Z,2.60
2024-01-27T02:34:21.582Z,2.61
2024-01-27T02:35:21.492Z,2.09
2024-01-27T02:36:21.581Z,2.71
2024-01-27T02:37:21.537Z,2.40
2024-01-27T02:38:21.567Z,2.59
2024-01-27T02:39:21.606Z,2.61
2024-01-27T02:40:21.656Z,2.33
2024-01-27T02:41:21.645Z,2.78
2024-01-27T02:42:21.685Z,2.26
2024-01-27T02:43:21.704Z,2.64
2024-01-27T02:44:21.702Z,2.67
2024-01-27T02:45:21.726Z,2.57
2024-01-27T02:46:21.794Z,2.41
2024-01-27T02:47:21.780Z,2.40
2024-01-27T02:48:21.927Z,2.77
2024-01-27T02:49:22.012Z,2.83
2024-01-27T02:50:21.844Z,2.27
2024-01-27T02:51:22.013Z,2.12
2024-01-27T02:52:21.913Z,2.58
2024-01-27T02:53:21.958Z,2.17
2024-01-27T02:54:22.031Z,2.67
2024-01-27T02:55:21.992Z,2.62
2024-01-27T02:56:22.031Z,2.92
2024-01-27T02:57:22.028Z,2.68
2024-01-27T02:58:22.914Z,2.76
2024-01-27T02:59:22.032Z,2.60
2024-01-27T03:00:21.976Z,3.21
2024-01-27T03:01:22.136Z,2.33
2024-01-27T03:02:21.971Z,3.07
2024-01-27T03:03:22.010Z,2.70
2024-01-27T03:04:22.011Z,2.63
2024-01-27T03:05:21.992Z,2.61
2024-01-27T03:06:22.016Z,2.47
2024-01-27T03:07:21.975Z,2.41
2024-01-27T03:08:22.036Z,2.30
2024-01-27T03:09:22.050Z,2.74
2024-01-27T03:10:22.018Z,3.06
2024-01-27T03:11:21.989Z,2.83
2024-01-27T03:12:22.053Z,2.31
2024-01-27T03:13:22.042Z,3.09
2024-01-27T03:14:22.074Z,2.55
2024-01-27T03:15:24.053Z,2.89
2024-01-27T03:16:22.124Z,2.32
2024-01-27T03:17:22.151Z,2.85
2024-01-27T03:18:22.245Z,2.48
2024-01-27T03:19:22.278Z,2.72
2024-01-27T03:20:22.262Z,2.66
2024-01-27T03:21:22.349Z,2.42
2024-01-27T03:22:22.323Z,2.37
2024-01-27T03:23:22.312Z,2.62
2024-01-27T03:24:22.352Z,2.35
2024-01-27T03:25:22.314Z,2.97
2024-01-27T03:26:22.317Z,2.98
2024-01-27T03:27:22.308Z,3.03
2024-01-27T03:28:22.366Z,2.72
2024-01-27T03:29:22.360Z,3.22
2024-01-27T03:30:22.415Z,3.02
2024-01-27T03:31:22.404Z,3.07
2024-01-27T03:32:22.408Z,3.02
2024-01-27T03:33:22.532Z,2.45
2024-01-27T03:34:22.577Z,2.90
2024-01-27T03:35:22.553Z,2.98
2024-01-27T03:36:22.576Z,2.85
2024-01-27T03:37:22.544Z,2.65
2024-01-27T03:38:22.594Z,2.74
2024-01-27T03:39:22.649Z,3.29
2024-01-27T03:40:22.670Z,3.48
2024-01-27T03:41:22.746Z,2.95
2024-01-27T03:42:22.807Z,2.55
2024-01-27T03:43:22.736Z,2.60
2024-01-27T03:44:22.779Z,2.62
2024-01-27T03:45:22.854Z,2.43
2024-01-27T03:46:22.798Z,3.37
2024-01-27T03:47:22.835Z,3.10
2024-01-27T03:48:22.971Z,2.60
2024-01-27T03:49:22.937Z,2.58
2024-01-27T03:50:22.841Z,2.45
2024-01-27T03:51:22.891Z,2.77
2024-01-27T03:52:22.856Z,2.55
2024-01-27T03:53:22.859Z,2.55
2024-01-27T03:54:22.957Z,2.16
2024-01-27T03:55:22.875Z,2.45
2024-01-27T03:56:22.846Z,2.36
2024-01-27T03:57:22.914Z,2.19
2024-01-27T03:58:22.859Z,2.25
2024-01-27T03:59:22.977Z,2.18
2024-01-27T04:00:23.009Z,2.07
2024-01-27T04:01:23.045Z,2.36
2024-01-27T04:02:23.054Z,2.31
2024-01-27T04:03:23.148Z,2.87
2024-01-27T04:04:23.225Z,2.54
2024-01-27T04:05:23.130Z,2.92
2024-01-27T04:06:23.251Z,2.65
2024-01-27T04:07:23.249Z,2.39
2024-01-27T04:08:23.324Z,2.58
2024-01-27T04:09:23.410Z,2.50
2024-01-27T04:10:23.417Z,2.96
2024-01-27T04:11:23.490Z,3.01
2024-01-27T04:12:23.441Z,3.23
2024-01-27T04:13:23.473Z,3.02
2024-01-27T04:14:23.637Z,3.23
2024-01-27T04:15:23.531Z,2.77
2024-01-27T04:16:23.556Z,3.17
2024-01-27T04:17:23.540Z,3.37
2024-01-27T04:18:23.675Z,2.85
2024-01-27T04:19:23.657Z,3.69
2024-01-27T04:20:23.597Z,3.20
2024-01-27T04:21:23.685Z,3.03
2024-01-27T04:22:23.568Z,3.26
2024-01-27T04:23:23.650Z,2.88
2024-01-27T04:24:23.769Z,3.12
2024-01-27T04:25:23.696Z,3.14
2024-01-27T04:26:24.527Z,2.60
2024-01-27T04:27:23.921Z,3.26
2024-01-27T04:28:23.863Z,2.91
2024-01-27T04:29:23.895Z,3.20
2024-01-27T04:30:23.952Z,3.11
2024-01-27T04:31:23.879Z,3.35
2024-01-27T04:32:23.992Z,3.50
2024-01-27T04:33:24.089Z,3.66
2024-01-27T04:34:24.039Z,3.18
2024-01-27T04:35:23.926Z,3.49
2024-01-27T04:36:23.982Z,3.61
2024-01-27T04:37:24.057Z,3.54
2024-01-27T04:38:24.088Z,3.37
2024-01-27T04:39:24.211Z,3.43
2024-01-27T04:40:24.161Z,3.19
2024-01-27T04:41:24.193Z,3.17
2024-01-27T04:42:24.298Z,3.50
2024-01-27T04:43:24.306Z,2.87
2024-01-27T04:44:36.644Z,3.14
2024-01-27T04:45:36.663Z,3.11
2024-01-27T04:46:36.643Z,3.04
2024-01-27T04:47:36.704Z,2.74
2024-01-27T04:48:36.779Z,2.22
2024-01-27T04:49:36.927Z,2.53
2024-01-27T04:50:36.665Z,2.00
2024-01-27T04:51:36.734Z,2.06
2024-01-27T04:52:36.711Z,2.01
2024-01-27T04:53:36.672Z,1.97
2024-01-27T04:54:36.726Z,2.34
2024-01-27T04:55:36.674Z,2.31
2024-01-27T04:56:36.713Z,2.16
2024-01-27T04:57:36.745Z,1.97
2024-01-27T04:58:36.659Z,1.86
2024-01-27T04:59:36.709Z,2.03
2024-01-27T05:00:36.790Z,1.91
2024-01-27T05:01:36.751Z,2.23
2024-01-27T05:02:36.760Z,2.86
2024-01-27T05:03:36.916Z,2.47
2024-01-27T05:04:37.828Z,2.52
2024-01-27T05:05:37.163Z,2.80
2024-01-27T05:06:37.085Z,3.24
2024-01-27T05:07:36.997Z,3.70
2024-01-27T05:08:37.080Z,3.96
2024-01-27T05:09:37.240Z,4.58
2024-01-27T05:10:37.241Z,4.97
2024-01-27T05:11:37.286Z,4.82
2024-01-27T05:12:37.477Z,4.40
2024-01-27T05:13:37.437Z,4.62
2024-01-27T05:14:37.502Z,4.67
2024-01-27T05:15:37.631Z,5.21
2024-01-27T05:16:37.611Z,5.46
2024-01-27T05:17:37.716Z,5.31
2024-01-27T05:18:37.820Z,5.43
2024-01-27T05:19:37.836Z,5.10
2024-01-27T05:20:37.907Z,5.03
2024-01-27T05:21:37.918Z,5.81
2024-01-27T05:22:37.970Z,5.88
2024-01-27T05:23:38.032Z,6.05
2024-01-27T05:24:38.090Z,7.19
2024-01-27T05:25:38.093Z,6.04
2024-01-27T05:26:38.150Z,6.44
2024-01-27T05:27:38.246Z,6.14
2024-01-27T05:28:38.254Z,5.75
2024-01-27T05:29:38.300Z,5.92
2024-01-27T05:30:38.426Z,6.04
2024-01-27T05:31:38.393Z,5.66
2024-01-27T05:32:38.522Z,5.94
2024-01-27T05:33:38.643Z,5.75
2024-01-27T05:34:38.711Z,5.29
2024-01-27T05:35:38.594Z,3.91
2024-01-27T05:36:38.588Z,3.26
2024-01-27T05:37:38.619Z,3.31
2024-01-27T05:38:38.692Z,4.76
2024-01-27T05:39:38.767Z,5.85
2024-01-27T05:40:41.769Z,7.05
2024-01-27T05:41:38.746Z,6.57
2024-01-27T05:42:38.787Z,6.69
2024-01-27T05:43:38.766Z,6.83
2024-01-27T05:44:38.829Z,5.00
2024-01-27T05:45:38.886Z,4.65
2024-01-27T05:46:40.427Z,4.04
2024-01-27T05:47:38.926Z,3.40
2024-01-27T05:48:39.015Z,3.50
2024-01-27T05:49:39.099Z,3.08
2024-01-27T05:50:38.922Z,2.67
2024-01-27T05:51:38.950Z,3.43
2024-01-27T05:52:38.951Z,2.78
2024-01-27T05:53:38.999Z,2.67
2024-01-27T05:54:39.078Z,3.74
2024-01-27T05:55:38.987Z,5.01
2024-01-27T05:56:38.953Z,5.45
2024-01-27T05:57:38.998Z,5.08
2024-01-27T05:58:38.996Z,4.88
2024-01-27T05:59:39.011Z,5.98
2024-01-27T06:00:39.166Z,6.46
2024-01-27T06:01:39.039Z,5.27
2024-01-27T06:02:38.984Z,5.37
2024-01-27T06:03:39.104Z,5.13
2024-01-27T06:04:39.053Z,5.62
2024-01-27T06:05:39.041Z,5.02
2024-01-27T06:06:39.117Z,4.92
2024-01-27T06:07:39.061Z,4.90
2024-01-27T06:08:39.124Z,4.63
2024-01-27T06:09:39.301Z,5.02
2024-01-27T06:10:39.240Z,5.85
2024-01-27T06:11:39.282Z,5.56
2024-01-27T06:12:39.344Z,4.90
2024-01-27T06:13:39.520Z,5.61
2024-01-27T06:14:39.343Z,6.15
2024-01-27T06:15:39.374Z,6.09
2024-01-27T06:16:39.343Z,8.41
2024-01-27T06:17:39.444Z,9.74
2024-01-27T06:18:39.520Z,11.77
2024-01-27T06:19:39.536Z,11.84
2024-01-27T06:20:39.398Z,12.05
2024-01-27T06:21:39.441Z,11.40
2024-01-27T06:22:39.390Z,10.18
2024-01-27T06:23:39.368Z,10.09
2024-01-27T06:24:39.424Z,9.82
2024-01-27T06:25:39.411Z,9.70
2024-01-27T06:26:39.403Z,8.21
2024-01-27T06:27:39.428Z,7.76
2024-01-27T06:28:39.461Z,7.20
2024-01-27T06:29:39.470Z,6.75
2024-01-27T06:30:39.517Z,6.63
2024-01-27T06:31:39.445Z,7.05
2024-01-27T06:32:39.532Z,7.07
2024-01-27T06:33:39.646Z,6.81
2024-01-27T06:34:39.522Z,8.11
2024-01-27T06:35:39.498Z,6.58
2024-01-27T06:36:39.501Z,5.75
2024-01-27T06:37:39.459Z,5.18
2024-01-27T06:38:39.439Z,5.74
2024-01-27T06:39:39.596Z,7.18
2024-01-27T06:40:39.457Z,7.72
2024-01-27T06:41:39.498Z,8.43
2024-01-27T06:42:39.603Z,7.94
2024-01-27T06:43:39.534Z,7.79
2024-01-27T06:44:39.534Z,8.67
2024-01-27T06:45:39.621Z,9.77
2024-01-27T06:46:39.565Z,11.30
2024-01-27T06:47:39.542Z,10.84
2024-01-27T06:48:39.761Z,10.77
2024-01-27T06:49:39.634Z,9.96
2024-01-27T06:50:39.590Z,10.48
2024-01-27T06:51:39.597Z,11.47
2024-01-27T06:52:39.598Z,16.43
2024-01-27T06:53:39.639Z,22.18
2024-01-27T06:54:39.742Z,21.00
2024-01-27T06:55:43.473Z,21.53
2024-01-27T06:56:40.343Z,28.32
2024-01-27T06:57:39.845Z,20.72
2024-01-27T06:58:39.774Z,22.47
2024-01-27T06:59:39.834Z,19.51
2024-01-27T07:00:39.890Z,19.70
2024-01-27T07:01:39.884Z,20.28
2024-01-27T07:02:39.829Z,18.13
2024-01-27T07:03:39.942Z,19.48
2024-01-27T07:04:39.841Z,18.92
2024-01-27T07:05:40.167Z,18.47
2024-01-27T07:06:40.004Z,19.25
2024-01-27T07:07:39.875Z,18.16
2024-01-27T07:08:39.908Z,14.51
2024-01-27T07:09:39.919Z,18.50
2024-01-27T07:10:39.919Z,18.47
2024-01-27T07:11:39.925Z,28.88
2024-01-27T07:12:40.014Z,28.67
2024-01-27T07:13:39.922Z,41.08
2024-01-27T07:14:39.916Z,27.88
2024-01-27T07:15:40.109Z,24.60
2024-01-27T07:16:40.113Z,23.36
2024-01-27T07:17:40.132Z,20.84
2024-01-27T07:18:40.291Z,20.83
2024-01-27T07:19:40.218Z,20.12
2024-01-27T07:20:40.158Z,19.17
2024-01-27T07:21:40.242Z,18.46
2024-01-27T07:22:40.212Z,19.19
2024-01-27T07:23:40.240Z,21.87
2024-01-27T07:24:40.241Z,22.26
2024-01-27T07:25:40.286Z,20.62
2024-01-27T07:26:40.300Z,18.20
2024-01-27T07:27:40.490Z,17.42
2024-01-27T07:28:40.359Z,17.94
2024-01-27T07:29:40.361Z,14.36
2024-01-27T07:30:40.466Z,15.16
2024-01-27T07:31:40.417Z,13.97
2024-01-27T07:32:40.447Z,12.75
2024-01-27T07:33:40.566Z,12.64
2024-01-27T07:34:40.509Z,13.33
2024-01-27T07:35:40.502Z,14.23
2024-01-27T07:36:40.568Z,14.94
2024-01-27T07:37:40.511Z,17.08
2024-01-27T07:38:40.526Z,25.76
2024-01-27T07:39:40.677Z,25.78
2024-01-27T07:40:40.599Z,25.85
2024-01-27T07:41:40.630Z,27.19
2024-01-27T07:42:40.672Z,27.61
2024-01-27T07:43:40.665Z,25.91
2024-01-27T07:44:40.739Z,25.33
2024-01-27T07:45:40.745Z,25.00
2024-01-27T07:46:40.751Z,23.34
2024-01-27T07:47:40.833Z,21.92
2024-01-27T07:48:40.898Z,24.93
2024-01-27T07:49:40.890Z,31.22
2024-01-27T07:50:40.859Z,29.48
2024-01-27T07:51:40.870Z,32.80
2024-01-27T07:52:40.901Z,34.62
2024-01-27T07:53:40.948Z,33.09
2024-01-27T07:54:41.007Z,30.35
2024-01-27T07:55:41.041Z,28.92
2024-01-27T07:56:41.137Z,29.12
2024-01-27T07:57:41.204Z,29.65
2024-01-27T07:58:41.191Z,33.52
2024-01-27T07:59:41.221Z,36.29
2024-01-27T08:00:41.424Z,38.76
2024-01-27T08:01:41.289Z,38.46
2024-01-27T08:02:41.266Z,49.25
2024-01-27T08:03:41.341Z,59.62
2024-01-27T08:04:41.383Z,64.03
2024-01-27T08:05:41.377Z,66.33
2024-01-27T08:06:41.413Z,57.87
2024-01-27T08:07:41.470Z,50.72
2024-01-27T08:08:41.505Z,46.81
2024-01-27T08:09:41.540Z,40.84
2024-01-27T08:10:41.580Z,34.11
2024-01-27T08:11:41.757Z,33.38
2024-01-27T08:12:41.724Z,31.21
2024-01-27T08:13:41.788Z,23.82
2024-01-27T08:14:41.953Z,21.90
2024-01-27T08:15:41.997Z,20.26
2024-01-27T08:16:41.960Z,25.40
2024-01-27T08:17:42.049Z,20.54
2024-01-27T08:18:42.272Z,18.76
2024-01-27T08:19:42.220Z,16.21
2024-01-27T08:20:42.186Z,14.69
2024-01-27T08:21:42.326Z,14.85
2024-01-27T08:22:42.329Z,14.59
2024-01-27T08:23:42.401Z,14.12
2024-01-27T08:24:42.490Z,14.09
2024-01-27T08:25:42.524Z,14.42
2024-01-27T08:26:42.622Z,13.73
2024-01-27T08:27:42.680Z,13.09
2024-01-27T08:28:42.701Z,13.15
2024-01-27T08:29:42.787Z,12.51
2024-01-27T08:30:42.910Z,12.50
2024-01-27T08:31:43.023Z,12.54
2024-01-27T08:32:43.032Z,11.98
2024-01-27T08:33:43.092Z,11.12
2024-01-27T08:34:43.188Z,11.45
2024-01-27T08:35:43.190Z,11.47
2024-01-27T08:36:43.262Z,10.52
2024-01-27T08:37:43.270Z,10.18
2024-01-27T08:38:43.328Z,10.34
2024-01-27T08:39:43.466Z,9.33
2024-01-27T08:40:43.509Z,9.26
2024-01-27T08:41:43.501Z,8.68
2024-01-27T08:42:43.587Z,8.53
2024-01-27T08:43:43.615Z,7.87
2024-01-27T08:44:43.686Z,8.03
2024-01-27T08:45:43.742Z,7.90
2024-01-27T08:46:43.698Z,6.93
2024-01-27T08:47:43.758Z,6.98
2024-01-27T08:48:43.811Z,6.52
2024-01-27T08:49:43.803Z,6.31
2024-01-27T08:50:43.723Z,6.78
2024-01-27T08:51:43.707Z,7.04
2024-01-27T08:52:43.704Z,7.27
2024-01-27T08:53:43.815Z,7.22
2024-01-27T08:54:43.831Z,7.33
2024-01-27T08:55:43.721Z,7.33
2024-01-27T08:56:43.728Z,6.87
2024-01-27T08:57:43.734Z,7.10
2024-01-27T08:58:43.771Z,6.97
2024-01-27T08:59:43.839Z,6.88
2024-01-27T09:00:44.044Z,6.67
2024-01-27T09:01:43.914Z,6.47
2024-01-27T09:02:43.971Z,6.26
2024-01-27T09:03:44.081Z,6.63
2024-01-27T09:04:44.227Z,6.50
2024-01-27T09:05:44.148Z,6.05
2024-01-27T09:06:44.217Z,6.31
2024-01-27T09:07:44.176Z,6.75
2024-01-27T09:08:44.285Z,7.85
2024-01-27T09:09:44.380Z,6.93
2024-01-27T09:10:44.379Z,7.13
2024-01-27T09:11:44.430Z,6.71
2024-01-27T09:12:44.532Z,7.26
2024-01-27T09:13:44.504Z,7.34
2024-01-27T09:14:44.530Z,7.09
2024-01-27T09:15:44.571Z,6.73
2024-01-27T09:16:44.572Z,6.53
2024-01-27T09:17:44.587Z,7.48
2024-01-27T09:18:44.751Z,7.40
2024-01-27T09:19:44.685Z,7.60
2024-01-27T09:20:44.678Z,8.22
2024-01-27T09:21:44.722Z,8.25
2024-01-27T09:22:44.706Z,7.85
2024-01-27T09:23:44.712Z,9.34
2024-01-27T09:24:44.824Z,8.73
2024-01-27T09:25:44.736Z,11.29
2024-01-27T09:26:44.723Z,14.01
2024-01-27T09:27:44.803Z,9.79
2024-01-27T09:28:44.730Z,8.90
2024-01-27T09:29:44.737Z,8.81
2024-01-27T09:30:44.899Z,7.39
2024-01-27T09:31:44.770Z,6.82
2024-01-27T09:32:44.794Z,7.10
2024-01-27T09:33:44.786Z,6.40
2024-01-27T09:34:44.709Z,6.82
2024-01-27T09:35:44.774Z,6.30
2024-01-27T09:36:44.786Z,6.68
2024-01-27T09:37:44.741Z,6.27
2024-01-27T09:38:44.682Z,6.43
2024-01-27T09:39:44.737Z,6.61
2024-01-27T09:40:44.673Z,7.56
2024-01-27T09:41:44.686Z,7.27
2024-01-27T09:42:44.678Z,7.37
2024-01-27T09:43:44.663Z,7.45
2024-01-27T09:44:44.649Z,7.36
2024-01-27T09:45:44.717Z,7.40
2024-01-27T09:46:44.643Z,7.31
2024-01-27T09:47:44.705Z,7.49
2024-01-27T09:48:44.911Z,7.18
2024-01-27T09:49:44.796Z,7.46
2024-01-27T09:50:44.616Z,7.87
2024-01-27T09:51:44.670Z,8.99
2024-01-27T09:52:44.648Z,10.07
2024-01-27T09:53:44.716Z,9.32
2024-01-27T09:54:44.786Z,9.87
2024-01-27T09:55:44.777Z,10.55
2024-01-27T09:56:44.788Z,11.59
2024-01-27T09:57:44.744Z,10.65
2024-01-27T09:58:44.746Z,10.30
2024-01-27T09:59:44.772Z,13.08
2024-01-27T10:00:44.876Z,14.46
2024-01-27T10:01:44.734Z,13.63
2024-01-27T10:02:44.735Z,11.76
2024-01-27T10:03:44.912Z,11.17
2024-01-27T10:04:44.922Z,10.99
2024-01-27T10:05:44.860Z,7.96
2024-01-27T10:06:44.993Z,8.37
2024-01-27T10:07:44.987Z,9.58
2024-01-27T10:08:45.048Z,8.58
2024-01-27T10:09:45.085Z,9.38
2024-01-27T10:10:45.156Z,9.85
2024-01-27T10:11:45.255Z,9.98
2024-01-27T10:12:45.271Z,11.57
2024-01-27T10:13:45.350Z,10.67
2024-01-27T10:14:45.401Z,9.93
2024-01-27T10:15:45.502Z,9.68
2024-01-27T10:16:45.536Z,10.85
2024-01-27T10:17:45.642Z,8.99
2024-01-27T10:18:45.788Z,9.02
2024-01-27T10:19:46.043Z,9.08
2024-01-27T10:20:45.805Z,9.21
2024-01-27T10:21:45.884Z,9.96
2024-01-27T10:22:45.933Z,9.84
2024-01-27T10:23:45.953Z,11.49
2024-01-27T10:24:46.100Z,12.01
2024-01-27T10:25:46.067Z,19.58
2024-01-27T10:26:46.116Z,11.98
2024-01-27T10:27:46.234Z,15.77
2024-01-27T10:28:46.242Z,9.35
2024-01-27T10:29:46.316Z,9.41
2024-01-27T10:30:46.469Z,8.98
2024-01-27T10:31:46.399Z,9.80
2024-01-27T10:32:46.513Z,8.37
2024-01-27T10:33:46.613Z,8.18
2024-01-27T10:34:46.653Z,6.94
2024-01-27T10:35:46.658Z,7.47
2024-01-27T10:36:47.064Z,7.27
2024-01-27T10:37:46.755Z,7.28
2024-01-27T10:38:46.791Z,7.95
2024-01-27T10:39:46.873Z,8.39
2024-01-27T10:40:46.813Z,7.56
2024-01-27T10:41:46.834Z,7.37
2024-01-27T10:42:46.829Z,7.65
2024-01-27T10:43:46.886Z,7.13
2024-01-27T10:44:46.866Z,7.19
2024-01-27T10:45:46.972Z,7.37
2024-01-27T10:46:46.824Z,7.64
2024-01-27T10:47:46.877Z,6.76
2024-01-27T10:48:46.866Z,6.83
2024-01-27T10:49:46.964Z,8.19
2024-01-27T10:50:46.933Z,7.77
2024-01-27T10:51:46.829Z,7.58
2024-01-27T10:52:46.774Z,8.03
2024-01-27T10:53:46.788Z,7.59
2024-01-27T10:54:46.899Z,7.32
2024-01-27T10:55:46.768Z,7.84
2024-01-27T10:56:46.816Z,8.16
2024-01-27T10:57:46.820Z,8.75
2024-01-27T10:58:46.817Z,8.47
2024-01-27T10:59:46.804Z,8.85
2024-01-27T11:00:46.922Z,8.30
2024-01-27T11:01:46.809Z,8.88
2024-01-27T11:02:46.843Z,8.39
2024-01-27T11:03:46.925Z,10.06
2024-01-27T11:04:46.893Z,8.75
2024-01-27T11:05:46.950Z,8.79
2024-01-27T11:06:46.992Z,9.62
2024-01-27T11:07:46.883Z,9.28
2024-01-27T11:08:46.923Z,8.89
2024-01-27T11:09:46.950Z,8.70
2024-01-27T11:10:46.950Z,7.97
2024-01-27T11:11:47.008Z,8.86
2024-01-27T11:12:47.044Z,8.37
2024-01-27T11:13:47.070Z,8.17
2024-01-27T11:14:47.078Z,8.84
2024-01-27T11:15:47.197Z,8.61
2024-01-27T11:16:47.242Z,9.16
2024-01-27T11:17:47.292Z,8.63
2024-01-27T11:18:47.392Z,7.76
2024-01-27T11:19:47.353Z,8.64
2024-01-27T11:20:47.397Z,8.71
2024-01-27T11:21:47.546Z,11.06
2024-01-27T11:22:47.494Z,9.43
2024-01-27T11:23:47.558Z,9.91
2024-01-27T11:24:47.708Z,9.18
2024-01-27T11:25:47.679Z,9.40
2024-01-27T11:26:47.767Z,8.77
2024-01-27T11:27:47.823Z,9.87
2024-01-27T11:28:47.858Z,9.10
2024-01-27T11:29:47.981Z,8.08
2024-01-27T11:30:48.002Z,7.89
2024-01-27T11:31:48.038Z,9.03
2024-01-27T11:32:48.134Z,8.16
2024-01-27T11:33:48.407Z,7.93
2024-01-27T11:34:48.201Z,7.50
2024-01-27T11:35:48.189Z,8.15
2024-01-27T11:36:48.331Z,6.54
2024-01-27T11:37:48.325Z,6.95
2024-01-27T11:38:48.367Z,5.56
2024-01-27T11:39:48.503Z,5.49
2024-01-27T11:40:48.784Z,3.60
2024-01-27T11:41:48.532Z,4.56
2024-01-27T11:42:48.610Z,4.76
2024-01-27T11:43:48.607Z,4.09
2024-01-27T11:44:48.713Z,3.47
2024-01-27T11:45:48.782Z,3.71
2024-01-27T11:46:48.745Z,3.72
2024-01-27T11:47:48.911Z,4.45
2024-01-27T11:48:48.916Z,4.41
2024-01-27T11:49:48.918Z,4.11
2024-01-27T11:50:48.933Z,4.13
2024-01-27T11:51:49.032Z,3.63
2024-01-27T11:52:49.034Z,3.35
2024-01-27T11:53:49.061Z,3.99
2024-01-27T11:54:49.177Z,3.71
2024-01-27T11:55:49.184Z,4.26
2024-01-27T11:56:49.250Z,3.34
2024-01-27T11:57:49.326Z,3.50
2024-01-27T11:58:49.617Z,3.89
2024-01-27T11:59:49.565Z,4.24
2024-01-27T12:00:49.581Z,5.12
2024-01-27T12:01:49.631Z,5.37
2024-01-27T12:02:49.597Z,4.80
2024-01-27T12:03:49.825Z,5.52
2024-01-27T12:04:49.752Z,5.46
2024-01-27T12:05:50.718Z,5.67
2024-01-27T12:06:49.948Z,5.34
2024-01-27T12:07:49.949Z,4.84
2024-01-27T12:08:50.668Z,5.53
2024-01-27T12:09:50.060Z,5.28
2024-01-27T12:10:50.133Z,5.30
2024-01-27T12:11:50.122Z,4.99
2024-01-27T12:12:50.161Z,5.01
2024-01-27T12:13:50.256Z,4.37
2024-01-27T12:14:50.289Z,4.15
2024-01-27T12:15:50.409Z,4.76
2024-01-27T12:16:50.375Z,4.63
2024-01-27T12:17:50.445Z,5.23
2024-01-27T12:18:50.566Z,3.85
2024-01-27T12:19:50.634Z,3.43
2024-01-27T12:20:50.590Z,3.01
2024-01-27T12:21:50.605Z,3.28
2024-01-27T12:22:50.682Z,3.10
2024-01-27T12:23:50.718Z,2.70
2024-01-27T12:24:50.795Z,2.77
2024-01-27T12:25:50.824Z,2.45
2024-01-27T12:26:50.859Z,2.72
2024-01-27T12:27:50.885Z,2.30
2024-01-27T12:28:50.935Z,2.06
2024-01-27T12:29:50.988Z,2.29
2024-01-27T12:30:51.045Z,2.23
2024-01-27T12:31:51.059Z,2.17
2024-01-27T12:32:51.148Z,2.36
2024-01-27T12:33:51.398Z,1.87
2024-01-27T12:34:51.503Z,1.85
2024-01-27T12:35:51.276Z,1.79
2024-01-27T12:36:51.345Z,2.06
2024-01-27T12:37:51.416Z,2.17
2024-01-27T12:38:51.432Z,1.96
2024-01-27T12:39:51.554Z,1.80
2024-01-27T12:40:51.546Z,2.26
2024-01-27T12:41:51.628Z,1.80
2024-01-27T12:42:51.660Z,2.05
2024-01-27T12:43:51.680Z,2.28
2024-01-27T12:44:51.767Z,2.33
2024-01-27T12:45:51.895Z,2.40
2024-01-27T12:46:51.901Z,2.02
2024-01-27T12:47:52.176Z,2.23
2024-01-27T12:48:52.079Z,2.61
2024-01-27T12:49:52.250Z,2.80
2024-01-27T12:50:52.092Z,2.15
2024-01-27T12:51:52.085Z,2.59
2024-01-27T12:52:52.166Z,2.53
2024-01-27T12:53:52.194Z,2.56
2024-01-27T12:54:52.278Z,2.59
2024-01-27T12:55:52.345Z,2.26
2024-01-27T12:56:52.379Z,2.75
2024-01-27T12:57:52.405Z,2.45
2024-01-27T12:58:52.561Z,2.68
2024-01-27T12:59:52.535Z,2.37
2024-01-27T13:00:52.682Z,2.64
2024-01-27T13:01:52.619Z,2.73
2024-01-27T13:02:52.683Z,2.70
2024-01-27T13:03:52.982Z,2.95
2024-01-27T13:04:52.717Z,2.80
2024-01-27T13:05:55.985Z,2.38
2024-01-27T13:06:52.832Z,2.30
2024-01-27T13:07:52.778Z,2.20
2024-01-27T13:08:52.814Z,2.49
2024-01-27T13:09:52.827Z,1.95
2024-01-27T13:10:52.814Z,2.71
2024-01-27T13:11:52.906Z,2.65
2024-01-27T13:12:52.853Z,2.16
2024-01-27T13:13:52.879Z,2.40